sensor_id;sensor_type;location;lat;lon;timestamp;P1;durP1;ratioP1;P2;durP2;ratioP2
44462;SDS011;30170;52.190;8.702;2023-03-23T00:00:35;7.25;;;4.90;;
44462;SDS011;30170;52.190;8.702;2023-03-23T00:03:24;11.40;;;5.30;;
44462;SDS011;30170;52.190;8.702;2023-03-23T00:05:54;11.05;;;6.13;;
44462;SDS011;30170;52.190;8.702;2023-03-23T00:08:56;10.90;;;4.68;;
44462;SDS011;30170;52.190;8.702;2023-03-23T00:11:26;9.10;;;4.82;;
44462;SDS011;30170;52.190;8.702;2023-03-23T00:14:19;9.50;;;5.22;;
44462;SDS011;30170;52.190;8.702;2023-03-23T00:16:50;8.63;;;4.43;;
44462;SDS011;30170;52.190;8.702;2023-03-23T00:19:45;10.55;;;5.18;;
44462;SDS011;30170;52.190;8.702;2023-03-23T00:22:30;9.65;;;5.18;;
44462;SDS011;30170;52.190;8.702;2023-03-23T00:25:03;12.63;;;5.03;;
44462;SDS011;30170;52.190;8.702;2023-03-23T00:27:29;14.48;;;6.45;;
44462;SDS011;30170;52.190;8.702;2023-03-23T00:30:03;10.57;;;5.90;;
44462;SDS011;30170;52.190;8.702;2023-03-23T00:32:46;9.73;;;5.75;;
44462;SDS011;30170;52.190;8.702;2023-03-23T00:35:37;12.88;;;5.82;;
44462;SDS011;30170;52.190;8.702;2023-03-23T00:38:25;11.57;;;5.80;;
44462;SDS011;30170;52.190;8.702;2023-03-23T00:44:14;12.45;;;5.60;;
44462;SDS011;30170;52.190;8.702;2023-03-23T00:46:48;11.10;;;6.53;;
44462;SDS011;30170;52.190;8.702;2023-03-23T00:49:20;13.73;;;5.78;;
44462;SDS011;30170;52.190;8.702;2023-03-23T00:52:05;10.68;;;5.60;;
44462;SDS011;30170;52.190;8.702;2023-03-23T00:54:57;9.23;;;4.75;;
44462;SDS011;30170;52.190;8.702;2023-03-23T01:00:47;8.50;;;4.47;;
44462;SDS011;30170;52.190;8.702;2023-03-23T01:03:14;9.55;;;5.03;;
44462;SDS011;30170;52.190;8.702;2023-03-23T01:05:46;8.48;;;5.40;;
44462;SDS011;30170;52.190;8.702;2023-03-23T01:08:24;8.65;;;4.82;;
44462;SDS011;30170;52.190;8.702;2023-03-23T01:11:12;7.07;;;4.95;;
44462;SDS011;30170;52.190;8.702;2023-03-23T01:13:37;9.63;;;5.53;;
44462;SDS011;30170;52.190;8.702;2023-03-23T01:16:17;8.45;;;5.63;;
44462;SDS011;30170;52.190;8.702;2023-03-23T01:18:46;9.57;;;5.75;;
44462;SDS011;30170;52.190;8.702;2023-03-23T01:21:14;8.52;;;5.55;;
44462;SDS011;30170;52.190;8.702;2023-03-23T01:23:41;9.82;;;6.72;;
44462;SDS011;30170;52.190;8.702;2023-03-23T01:26:25;9.00;;;5.18;;
44462;SDS011;30170;52.190;8.702;2023-03-23T01:28:57;8.10;;;4.80;;
44462;SDS011;30170;52.190;8.702;2023-03-23T01:31:24;10.02;;;5.38;;
44462;SDS011;30170;52.190;8.702;2023-03-23T01:33:59;8.95;;;4.90;;
44462;SDS011;30170;52.190;8.702;2023-03-23T01:36:36;9.05;;;4.72;;
44462;SDS011;30170;52.190;8.702;2023-03-23T01:39:03;9.77;;;4.93;;
44462;SDS011;30170;52.190;8.702;2023-03-23T01:41:32;9.88;;;4.97;;
44462;SDS011;30170;52.190;8.702;2023-03-23T01:46:46;8.25;;;5.00;;
44462;SDS011;30170;52.190;8.702;2023-03-23T01:49:19;7.72;;;4.50;;
44462;SDS011;30170;52.190;8.702;2023-03-23T01:51:53;9.10;;;4.80;;
44462;SDS011;30170;52.190;8.702;2023-03-23T01:54:31;11.30;;;4.68;;
44462;SDS011;30170;52.190;8.702;2023-03-23T01:57:44;8.32;;;5.25;;
44462;SDS011;30170;52.190;8.702;2023-03-23T02:00:58;8.18;;;4.20;;
44462;SDS011;30170;52.190;8.702;2023-03-23T02:03:45;8.07;;;4.70;;
44462;SDS011;30170;52.190;8.702;2023-03-23T02:06:15;6.95;;;4.13;;
44462;SDS011;30170;52.190;8.702;2023-03-23T02:08:44;8.50;;;4.38;;
44462;SDS011;30170;52.190;8.702;2023-03-23T02:11:23;7.40;;;3.97;;
44462;SDS011;30170;52.190;8.702;2023-03-23T02:13:59;6.15;;;3.80;;
44462;SDS011;30170;52.190;8.702;2023-03-23T02:16:55;6.90;;;3.60;;
44462;SDS011;30170;52.190;8.702;2023-03-23T02:25:56;8.15;;;4.38;;
44462;SDS011;30170;52.190;8.702;2023-03-23T02:43:21;6.47;;;3.35;;
44462;SDS011;30170;52.190;8.702;2023-03-23T02:45:54;5.40;;;2.78;;
44462;SDS011;30170;52.190;8.702;2023-03-23T02:54:18;6.78;;;2.72;;
44462;SDS011;30170;52.190;8.702;2023-03-23T03:03:26;7.90;;;3.33;;
44462;SDS011;30170;52.190;8.702;2023-03-23T03:11:50;5.55;;;2.88;;
44462;SDS011;30170;52.190;8.702;2023-03-23T03:14:31;6.53;;;2.90;;
44462;SDS011;30170;52.190;8.702;2023-03-23T03:17:10;5.18;;;3.08;;
44462;SDS011;30170;52.190;8.702;2023-03-23T03:19:57;9.38;;;3.10;;
44462;SDS011;30170;52.190;8.702;2023-03-23T03:22:40;6.88;;;3.08;;
44462;SDS011;30170;52.190;8.702;2023-03-23T03:25:13;8.57;;;2.72;;
44462;SDS011;30170;52.190;8.702;2023-03-23T03:28:24;5.90;;;2.60;;
44462;SDS011;30170;52.190;8.702;2023-03-23T03:31:02;5.53;;;2.65;;
44462;SDS011;30170;52.190;8.702;2023-03-23T03:33:56;5.00;;;2.85;;
44462;SDS011;30170;52.190;8.702;2023-03-23T03:36:41;8.07;;;2.38;;
44462;SDS011;30170;52.190;8.702;2023-03-23T03:39:19;3.80;;;2.25;;
44462;SDS011;30170;52.190;8.702;2023-03-23T03:41:58;4.40;;;2.40;;
44462;SDS011;30170;52.190;8.702;2023-03-23T03:44:24;4.55;;;2.63;;
44462;SDS011;30170;52.190;8.702;2023-03-23T03:50:00;6.57;;;2.50;;
44462;SDS011;30170;52.190;8.702;2023-03-23T03:52:35;5.03;;;2.45;;
44462;SDS011;30170;52.190;8.702;2023-03-23T03:55:21;3.92;;;2.17;;
44462;SDS011;30170;52.190;8.702;2023-03-23T03:57:48;2.90;;;1.88;;
44462;SDS011;30170;52.190;8.702;2023-03-23T04:00:16;5.93;;;2.55;;
44462;SDS011;30170;52.190;8.702;2023-03-23T04:02:56;5.85;;;2.40;;
44462;SDS011;30170;52.190;8.702;2023-03-23T04:08:30;3.90;;;2.05;;
44462;SDS011;30170;52.190;8.702;2023-03-23T04:10:57;4.93;;;2.50;;
44462;SDS011;30170;52.190;8.702;2023-03-23T04:13:49;5.90;;;2.97;;
44462;SDS011;30170;52.190;8.702;2023-03-23T04:16:25;5.85;;;2.88;;
44462;SDS011;30170;52.190;8.702;2023-03-23T04:18:55;5.68;;;2.00;;
44462;SDS011;30170;52.190;8.702;2023-03-23T04:21:28;3.55;;;2.20;;
44462;SDS011;30170;52.190;8.702;2023-03-23T04:23:55;4.05;;;2.08;;
44462;SDS011;30170;52.190;8.702;2023-03-23T04:26:46;3.63;;;2.05;;
44462;SDS011;30170;52.190;8.702;2023-03-23T04:29:17;4.70;;;2.20;;
44462;SDS011;30170;52.190;8.702;2023-03-23T04:31:44;3.45;;;2.20;;
44462;SDS011;30170;52.190;8.702;2023-03-23T04:34:11;3.72;;;2.30;;
44462;SDS011;30170;52.190;8.702;2023-03-23T04:36:43;5.60;;;2.42;;
44462;SDS011;30170;52.190;8.702;2023-03-23T04:39:12;6.22;;;2.35;;
44462;SDS011;30170;52.190;8.702;2023-03-23T04:42:29;3.60;;;2.40;;
44462;SDS011;30170;52.190;8.702;2023-03-23T04:48:15;3.45;;;2.30;;
44462;SDS011;30170;52.190;8.702;2023-03-23T04:50:49;4.05;;;2.00;;
44462;SDS011;30170;52.190;8.702;2023-03-23T04:53:27;4.95;;;2.10;;
44462;SDS011;30170;52.190;8.702;2023-03-23T04:56:07;4.60;;;2.20;;
44462;SDS011;30170;52.190;8.702;2023-03-23T04:58:36;4.97;;;2.05;;
44462;SDS011;30170;52.190;8.702;2023-03-23T05:01:12;5.05;;;2.13;;
44462;SDS011;30170;52.190;8.702;2023-03-23T05:03:46;4.35;;;2.78;;
44462;SDS011;30170;52.190;8.702;2023-03-23T05:06:17;3.97;;;2.17;;
44462;SDS011;30170;52.190;8.702;2023-03-23T05:09:07;4.05;;;2.33;;
44462;SDS011;30170;52.190;8.702;2023-03-23T05:12:05;3.65;;;2.00;;
44462;SDS011;30170;52.190;8.702;2023-03-23T05:14:32;2.85;;;1.80;;
44462;SDS011;30170;52.190;8.702;2023-03-23T05:16:58;4.40;;;2.03;;
44462;SDS011;30170;52.190;8.702;2023-03-23T05:19:28;4.40;;;2.15;;
44462;SDS011;30170;52.190;8.702;2023-03-23T05:21:57;4.00;;;2.15;;
44462;SDS011;30170;52.190;8.702;2023-03-23T05:24:42;3.70;;;1.92;;
44462;SDS011;30170;52.190;8.702;2023-03-23T05:27:11;3.70;;;1.95;;
44462;SDS011;30170;52.190;8.702;2023-03-23T05:32:45;4.00;;;1.90;;
44462;SDS011;30170;52.190;8.702;2023-03-23T05:35:35;3.78;;;1.70;;
44462;SDS011;30170;52.190;8.702;2023-03-23T05:38:15;4.68;;;2.50;;
44462;SDS011;30170;52.190;8.702;2023-03-23T05:40:47;5.20;;;2.10;;
44462;SDS011;30170;52.190;8.702;2023-03-23T05:43:14;6.05;;;2.13;;
44462;SDS011;30170;52.190;8.702;2023-03-23T05:45:46;3.95;;;2.00;;
44462;SDS011;30170;52.190;8.702;2023-03-23T05:48:21;2.55;;;1.70;;
44462;SDS011;30170;52.190;8.702;2023-03-23T05:50:48;3.40;;;2.05;;
44462;SDS011;30170;52.190;8.702;2023-03-23T05:53:17;3.00;;;1.90;;
44462;SDS011;30170;52.190;8.702;2023-03-23T05:58:54;2.60;;;1.70;;
44462;SDS011;30170;52.190;8.702;2023-03-23T06:01:47;2.92;;;1.77;;
44462;SDS011;30170;52.190;8.702;2023-03-23T06:04:12;3.47;;;1.90;;
44462;SDS011;30170;52.190;8.702;2023-03-23T06:06:39;2.38;;;1.80;;
44462;SDS011;30170;52.190;8.702;2023-03-23T06:09:08;7.60;;;2.10;;
44462;SDS011;30170;52.190;8.702;2023-03-23T06:11:37;4.18;;;2.10;;
44462;SDS011;30170;52.190;8.702;2023-03-23T06:14:03;3.75;;;1.92;;
44462;SDS011;30170;52.190;8.702;2023-03-23T06:16:50;4.13;;;2.00;;
44462;SDS011;30170;52.190;8.702;2023-03-23T06:19:16;4.25;;;2.13;;
44462;SDS011;30170;52.190;8.702;2023-03-23T06:21:43;4.78;;;2.38;;
44462;SDS011;30170;52.190;8.702;2023-03-23T06:24:21;3.70;;;1.92;;
44462;SDS011;30170;52.190;8.702;2023-03-23T06:26:58;4.43;;;2.15;;
44462;SDS011;30170;52.190;8.702;2023-03-23T06:29:25;3.67;;;1.88;;
44462;SDS011;30170;52.190;8.702;2023-03-23T06:31:54;4.88;;;2.22;;
44462;SDS011;30170;52.190;8.702;2023-03-23T06:34:48;2.90;;;1.85;;
44462;SDS011;30170;52.190;8.702;2023-03-23T06:38:01;3.80;;;2.08;;
44462;SDS011;30170;52.190;8.702;2023-03-23T06:40:28;3.38;;;1.77;;
44462;SDS011;30170;52.190;8.702;2023-03-23T06:42:56;3.85;;;2.20;;
44462;SDS011;30170;52.190;8.702;2023-03-23T06:45:24;6.00;;;2.40;;
44462;SDS011;30170;52.190;8.702;2023-03-23T06:47:50;4.03;;;2.40;;
44462;SDS011;30170;52.190;8.702;2023-03-23T06:50:16;4.15;;;2.00;;
44462;SDS011;30170;52.190;8.702;2023-03-23T06:52:49;4.45;;;2.10;;
44462;SDS011;30170;52.190;8.702;2023-03-23T06:55:16;3.30;;;2.08;;
44462;SDS011;30170;52.190;8.702;2023-03-23T06:57:43;4.32;;;2.10;;
44462;SDS011;30170;52.190;8.702;2023-03-23T07:00:11;3.70;;;2.08;;
44462;SDS011;30170;52.190;8.702;2023-03-23T07:02:39;4.13;;;2.45;;
44462;SDS011;30170;52.190;8.702;2023-03-23T07:05:06;3.80;;;2.47;;
44462;SDS011;30170;52.190;8.702;2023-03-23T07:07:34;4.05;;;2.30;;
44462;SDS011;30170;52.190;8.702;2023-03-23T07:10:00;3.72;;;2.30;;
44462;SDS011;30170;52.190;8.702;2023-03-23T07:12:27;4.95;;;1.95;;
44462;SDS011;30170;52.190;8.702;2023-03-23T07:14:54;7.03;;;2.60;;
44462;SDS011;30170;52.190;8.702;2023-03-23T07:17:20;4.43;;;2.28;;
44462;SDS011;30170;52.190;8.702;2023-03-23T07:19:47;3.30;;;2.00;;
44462;SDS011;30170;52.190;8.702;2023-03-23T07:22:13;4.60;;;2.40;;
44462;SDS011;30170;52.190;8.702;2023-03-23T07:24:40;8.18;;;2.85;;
44462;SDS011;30170;52.190;8.702;2023-03-23T07:27:06;4.82;;;2.42;;
44462;SDS011;30170;52.190;8.702;2023-03-23T07:29:32;5.70;;;2.35;;
44462;SDS011;30170;52.190;8.702;2023-03-23T07:32:01;3.65;;;2.08;;
44462;SDS011;30170;52.190;8.702;2023-03-23T07:34:28;4.88;;;2.00;;
44462;SDS011;30170;52.190;8.702;2023-03-23T07:36:54;4.90;;;2.22;;
44462;SDS011;30170;52.190;8.702;2023-03-23T07:39:20;4.53;;;2.40;;
44462;SDS011;30170;52.190;8.702;2023-03-23T07:41:49;6.55;;;2.20;;
44462;SDS011;30170;52.190;8.702;2023-03-23T07:44:15;5.72;;;2.45;;
44462;SDS011;30170;52.190;8.702;2023-03-23T07:46:42;3.75;;;2.10;;
44462;SDS011;30170;52.190;8.702;2023-03-23T07:49:09;4.43;;;2.72;;
44462;SDS011;30170;52.190;8.702;2023-03-23T07:51:35;4.40;;;2.30;;
44462;SDS011;30170;52.190;8.702;2023-03-23T07:54:05;7.35;;;2.63;;
44462;SDS011;30170;52.190;8.702;2023-03-23T07:56:33;5.65;;;2.10;;
44462;SDS011;30170;52.190;8.702;2023-03-23T07:59:00;5.43;;;2.30;;
44462;SDS011;30170;52.190;8.702;2023-03-23T08:01:28;3.28;;;2.10;;
44462;SDS011;30170;52.190;8.702;2023-03-23T08:03:54;5.47;;;2.78;;
44462;SDS011;30170;52.190;8.702;2023-03-23T08:06:22;6.38;;;2.40;;
44462;SDS011;30170;52.190;8.702;2023-03-23T08:08:49;4.25;;;2.50;;
44462;SDS011;30170;52.190;8.702;2023-03-23T08:11:16;4.72;;;2.22;;
44462;SDS011;30170;52.190;8.702;2023-03-23T08:13:42;6.07;;;2.40;;
44462;SDS011;30170;52.190;8.702;2023-03-23T08:16:08;5.97;;;2.67;;
44462;SDS011;30170;52.190;8.702;2023-03-23T08:18:35;6.05;;;2.47;;
44462;SDS011;30170;52.190;8.702;2023-03-23T08:21:03;5.65;;;2.53;;
44462;SDS011;30170;52.190;8.702;2023-03-23T08:23:34;6.00;;;3.20;;
44462;SDS011;30170;52.190;8.702;2023-03-23T08:26:02;5.88;;;2.38;;
44462;SDS011;30170;52.190;8.702;2023-03-23T08:28:31;4.43;;;2.28;;
44462;SDS011;30170;52.190;8.702;2023-03-23T08:30:58;4.63;;;2.30;;
44462;SDS011;30170;52.190;8.702;2023-03-23T08:33:25;6.43;;;2.78;;
44462;SDS011;30170;52.190;8.702;2023-03-23T08:35:56;4.93;;;2.45;;
44462;SDS011;30170;52.190;8.702;2023-03-23T08:38:23;5.93;;;2.60;;
44462;SDS011;30170;52.190;8.702;2023-03-23T08:40:49;5.25;;;2.22;;
44462;SDS011;30170;52.190;8.702;2023-03-23T08:43:16;5.47;;;3.70;;
44462;SDS011;30170;52.190;8.702;2023-03-23T08:45:42;6.25;;;2.42;;
44462;SDS011;30170;52.190;8.702;2023-03-23T08:48:09;5.45;;;2.38;;
44462;SDS011;30170;52.190;8.702;2023-03-23T08:50:36;4.82;;;2.60;;
44462;SDS011;30170;52.190;8.702;2023-03-23T08:53:02;5.00;;;2.60;;
44462;SDS011;30170;52.190;8.702;2023-03-23T08:55:29;4.85;;;2.35;;
44462;SDS011;30170;52.190;8.702;2023-03-23T08:57:55;6.45;;;2.40;;
44462;SDS011;30170;52.190;8.702;2023-03-23T09:00:22;7.05;;;2.83;;
44462;SDS011;30170;52.190;8.702;2023-03-23T09:02:52;6.75;;;3.53;;
44462;SDS011;30170;52.190;8.702;2023-03-23T09:05:19;6.65;;;3.42;;
44462;SDS011;30170;52.190;8.702;2023-03-23T09:07:48;4.78;;;2.60;;
44462;SDS011;30170;52.190;8.702;2023-03-23T09:10:14;6.18;;;2.95;;
44462;SDS011;30170;52.190;8.702;2023-03-23T09:12:41;7.40;;;2.75;;
44462;SDS011;30170;52.190;8.702;2023-03-23T09:15:08;5.97;;;3.08;;
44462;SDS011;30170;52.190;8.702;2023-03-23T09:17:36;4.95;;;2.25;;
44462;SDS011;30170;52.190;8.702;2023-03-23T09:20:03;4.15;;;2.53;;
44462;SDS011;30170;52.190;8.702;2023-03-23T09:22:35;3.67;;;2.50;;
44462;SDS011;30170;52.190;8.702;2023-03-23T09:25:02;10.10;;;2.60;;
44462;SDS011;30170;52.190;8.702;2023-03-23T09:27:28;4.15;;;2.45;;
44462;SDS011;30170;52.190;8.702;2023-03-23T09:29:54;6.80;;;2.47;;
44462;SDS011;30170;52.190;8.702;2023-03-23T09:32:21;5.25;;;2.45;;
44462;SDS011;30170;52.190;8.702;2023-03-23T09:34:48;3.95;;;1.92;;
44462;SDS011;30170;52.190;8.702;2023-03-23T09:37:16;8.43;;;2.88;;
44462;SDS011;30170;52.190;8.702;2023-03-23T09:39:43;7.13;;;2.63;;
44462;SDS011;30170;52.190;8.702;2023-03-23T09:47:52;5.78;;;2.40;;
44462;SDS011;30170;52.190;8.702;2023-03-23T09:50:24;5.38;;;2.28;;
44462;SDS011;30170;52.190;8.702;2023-03-23T09:52:56;9.00;;;2.25;;
44462;SDS011;30170;52.190;8.702;2023-03-23T09:55:23;4.28;;;2.40;;
44462;SDS011;30170;52.190;8.702;2023-03-23T09:57:52;6.38;;;2.35;;
44462;SDS011;30170;52.190;8.702;2023-03-23T10:00:34;3.47;;;1.95;;
44462;SDS011;30170;52.190;8.702;2023-03-23T10:03:18;9.00;;;2.85;;
44462;SDS011;30170;52.190;8.702;2023-03-23T10:05:50;7.30;;;2.30;;
44462;SDS011;30170;52.190;8.702;2023-03-23T10:08:24;7.00;;;2.20;;
44462;SDS011;30170;52.190;8.702;2023-03-23T10:16:22;6.95;;;3.10;;
44462;SDS011;30170;52.190;8.702;2023-03-23T10:18:58;5.55;;;2.53;;
44462;SDS011;30170;52.190;8.702;2023-03-23T10:21:25;8.40;;;3.25;;
44462;SDS011;30170;52.190;8.702;2023-03-23T10:24:02;6.90;;;2.72;;
44462;SDS011;30170;52.190;8.702;2023-03-23T10:29:33;4.63;;;2.17;;
44462;SDS011;30170;52.190;8.702;2023-03-23T10:34:32;4.47;;;2.30;;
44462;SDS011;30170;52.190;8.702;2023-03-23T10:39:29;6.10;;;2.40;;
44462;SDS011;30170;52.190;8.702;2023-03-23T10:41:56;7.63;;;2.83;;
44462;SDS011;30170;52.190;8.702;2023-03-23T10:44:32;5.10;;;2.65;;
44462;SDS011;30170;52.190;8.702;2023-03-23T10:47:00;5.82;;;2.13;;
44462;SDS011;30170;52.190;8.702;2023-03-23T10:54:50;4.68;;;2.63;;
44462;SDS011;30170;52.190;8.702;2023-03-23T10:57:28;5.88;;;2.05;;
44462;SDS011;30170;52.190;8.702;2023-03-23T11:00:03;10.52;;;3.05;;
44462;SDS011;30170;52.190;8.702;2023-03-23T11:02:37;6.07;;;2.85;;
44462;SDS011;30170;52.190;8.702;2023-03-23T11:05:21;8.43;;;4.05;;
44462;SDS011;30170;52.190;8.702;2023-03-23T11:14:12;8.18;;;3.05;;
44462;SDS011;30170;52.190;8.702;2023-03-23T11:16:45;6.88;;;3.22;;
44462;SDS011;30170;52.190;8.702;2023-03-23T11:19:14;4.82;;;2.40;;
44462;SDS011;30170;52.190;8.702;2023-03-23T11:21:52;5.47;;;1.90;;
44462;SDS011;30170;52.190;8.702;2023-03-23T11:24:55;5.50;;;2.00;;
44462;SDS011;30170;52.190;8.702;2023-03-23T11:30:25;3.53;;;1.90;;
44462;SDS011;30170;52.190;8.702;2023-03-23T12:50:12;5.32;;;2.03;;
44462;SDS011;30170;52.190;8.702;2023-03-23T12:53:16;2.95;;;1.85;;
44462;SDS011;30170;52.190;8.702;2023-03-23T12:55:48;2.90;;;1.50;;
44462;SDS011;30170;52.190;8.702;2023-03-23T12:58:32;3.45;;;1.75;;
44462;SDS011;30170;52.190;8.702;2023-03-23T13:01:24;2.30;;;1.23;;
44462;SDS011;30170;52.190;8.702;2023-03-23T13:07:17;3.33;;;1.20;;
44462;SDS011;30170;52.190;8.702;2023-03-23T13:27:13;4.32;;;1.17;;
44462;SDS011;30170;52.190;8.702;2023-03-23T13:33:23;3.53;;;1.40;;
44462;SDS011;30170;52.190;8.702;2023-03-23T13:36:24;3.42;;;1.02;;
44462;SDS011;30170;52.190;8.702;2023-03-23T13:39:32;3.25;;;1.33;;
44462;SDS011;30170;52.190;8.702;2023-03-23T13:42:21;2.00;;;1.00;;
44462;SDS011;30170;52.190;8.702;2023-03-23T14:18:01;2.88;;;1.55;;
44462;SDS011;30170;52.190;8.702;2023-03-23T14:20:30;2.30;;;1.80;;
44462;SDS011;30170;52.190;8.702;2023-03-23T14:23:01;5.03;;;2.00;;
44462;SDS011;30170;52.190;8.702;2023-03-23T14:25:29;3.55;;;2.00;;
44462;SDS011;30170;52.190;8.702;2023-03-23T14:28:00;2.53;;;1.75;;
44462;SDS011;30170;52.190;8.702;2023-03-23T14:30:27;3.60;;;1.80;;
44462;SDS011;30170;52.190;8.702;2023-03-23T14:36:20;4.40;;;2.38;;
44462;SDS011;30170;52.190;8.702;2023-03-23T14:41:51;3.80;;;1.95;;
44462;SDS011;30170;52.190;8.702;2023-03-23T14:44:22;4.28;;;2.10;;
44462;SDS011;30170;52.190;8.702;2023-03-23T14:46:49;2.85;;;1.75;;
44462;SDS011;30170;52.190;8.702;2023-03-23T14:52:16;4.65;;;2.40;;
44462;SDS011;30170;52.190;8.702;2023-03-23T14:54:45;5.18;;;3.08;;
44462;SDS011;30170;52.190;8.702;2023-03-23T14:57:16;5.22;;;3.05;;
44462;SDS011;30170;52.190;8.702;2023-03-23T14:59:44;3.78;;;2.67;;
44462;SDS011;30170;52.190;8.702;2023-03-23T15:08:28;6.47;;;2.67;;
44462;SDS011;30170;52.190;8.702;2023-03-23T15:25:52;5.82;;;2.53;;
44462;SDS011;30170;52.190;8.702;2023-03-23T15:28:20;4.50;;;2.92;;
44462;SDS011;30170;52.190;8.702;2023-03-23T15:30:56;4.38;;;2.47;;
44462;SDS011;30170;52.190;8.702;2023-03-23T15:33:36;4.30;;;3.17;;
44462;SDS011;30170;52.190;8.702;2023-03-23T15:39:03;5.65;;;3.35;;
44462;SDS011;30170;52.190;8.702;2023-03-23T15:41:32;6.28;;;3.65;;
44462;SDS011;30170;52.190;8.702;2023-03-23T15:44:08;7.35;;;3.97;;
44462;SDS011;30170;52.190;8.702;2023-03-23T15:46:47;6.95;;;4.22;;
44462;SDS011;30170;52.190;8.702;2023-03-23T15:49:13;10.07;;;3.47;;
44462;SDS011;30170;52.190;8.702;2023-03-23T15:51:50;6.28;;;3.35;;
44462;SDS011;30170;52.190;8.702;2023-03-23T15:54:58;5.60;;;3.53;;
44462;SDS011;30170;52.190;8.702;2023-03-23T20:04:57;8.57;;;5.00;;
44462;SDS011;30170;52.190;8.702;2023-03-23T20:07:27;9.85;;;4.90;;
44462;SDS011;30170;52.190;8.702;2023-03-23T20:09:58;8.50;;;4.40;;
44462;SDS011;30170;52.190;8.702;2023-03-23T20:15:22;7.63;;;3.83;;
44462;SDS011;30170;52.190;8.702;2023-03-23T20:18:22;5.60;;;3.30;;
44462;SDS011;30170;52.190;8.702;2023-03-23T20:21:11;8.20;;;3.15;;
44462;SDS011;30170;52.190;8.702;2023-03-23T20:26:41;5.20;;;2.92;;
44462;SDS011;30170;52.190;8.702;2023-03-23T20:29:13;5.95;;;2.75;;
44462;SDS011;30170;52.190;8.702;2023-03-23T20:31:41;6.22;;;2.88;;
44462;SDS011;30170;52.190;8.702;2023-03-23T20:34:16;9.98;;;3.22;;
44462;SDS011;30170;52.190;8.702;2023-03-23T20:37:11;7.05;;;2.80;;
44462;SDS011;30170;52.190;8.702;2023-03-23T20:40:04;10.25;;;2.95;;
44462;SDS011;30170;52.190;8.702;2023-03-23T20:42:39;11.27;;;3.58;;
44462;SDS011;30170;52.190;8.702;2023-03-23T20:45:31;7.68;;;2.83;;
44462;SDS011;30170;52.190;8.702;2023-03-23T20:48:12;5.72;;;3.15;;
44462;SDS011;30170;52.190;8.702;2023-03-23T20:50:57;4.90;;;2.85;;
44462;SDS011;30170;52.190;8.702;2023-03-23T20:53:38;5.15;;;2.53;;
44462;SDS011;30170;52.190;8.702;2023-03-23T20:56:20;4.80;;;2.67;;
44462;SDS011;30170;52.190;8.702;2023-03-23T21:01:52;4.25;;;2.90;;
44462;SDS011;30170;52.190;8.702;2023-03-23T21:04:28;6.57;;;2.80;;
44462;SDS011;30170;52.190;8.702;2023-03-23T21:07:22;6.22;;;2.70;;
44462;SDS011;30170;52.190;8.702;2023-03-23T21:10:00;6.15;;;3.03;;
44462;SDS011;30170;52.190;8.702;2023-03-23T21:12:35;6.50;;;3.25;;
44462;SDS011;30170;52.190;8.702;2023-03-23T21:15:03;6.72;;;3.00;;
44462;SDS011;30170;52.190;8.702;2023-03-23T21:21:12;5.88;;;2.78;;
44462;SDS011;30170;52.190;8.702;2023-03-23T21:24:12;4.63;;;2.67;;
44462;SDS011;30170;52.190;8.702;2023-03-23T21:30:03;4.03;;;2.30;;
44462;SDS011;30170;52.190;8.702;2023-03-23T21:32:35;4.00;;;2.78;;
44462;SDS011;30170;52.190;8.702;2023-03-23T21:35:19;5.88;;;3.38;;
44462;SDS011;30170;52.190;8.702;2023-03-23T21:37:49;4.72;;;2.60;;
44462;SDS011;30170;52.190;8.702;2023-03-23T21:40:25;6.55;;;2.65;;
44462;SDS011;30170;52.190;8.702;2023-03-23T21:42:58;7.07;;;3.10;;
44462;SDS011;30170;52.190;8.702;2023-03-23T21:45:26;7.38;;;3.25;;
44462;SDS011;30170;52.190;8.702;2023-03-23T21:50:48;5.35;;;3.00;;
44462;SDS011;30170;52.190;8.702;2023-03-23T21:56:20;6.20;;;2.95;;
44462;SDS011;30170;52.190;8.702;2023-03-23T21:58:55;5.88;;;2.60;;
44462;SDS011;30170;52.190;8.702;2023-03-23T22:01:31;9.82;;;2.75;;
44462;SDS011;30170;52.190;8.702;2023-03-23T22:04:02;5.03;;;2.70;;
44462;SDS011;30170;52.190;8.702;2023-03-23T22:06:35;6.40;;;3.00;;
44462;SDS011;30170;52.190;8.702;2023-03-23T22:09:16;5.50;;;2.90;;
44462;SDS011;30170;52.190;8.702;2023-03-23T22:11:51;6.70;;;2.70;;
44462;SDS011;30170;52.190;8.702;2023-03-23T22:14:18;5.85;;;2.35;;
44462;SDS011;30170;52.190;8.702;2023-03-23T22:16:52;8.30;;;2.63;;
44462;SDS011;30170;52.190;8.702;2023-03-23T22:19:21;5.43;;;2.30;;
44462;SDS011;30170;52.190;8.702;2023-03-23T22:21:59;7.57;;;2.38;;
44462;SDS011;30170;52.190;8.702;2023-03-23T22:24:32;6.45;;;2.50;;
44462;SDS011;30170;52.190;8.702;2023-03-23T22:27:02;7.32;;;2.35;;
44462;SDS011;30170;52.190;8.702;2023-03-23T22:29:38;4.20;;;2.30;;
44462;SDS011;30170;52.190;8.702;2023-03-23T22:32:09;5.57;;;2.45;;
44462;SDS011;30170;52.190;8.702;2023-03-23T22:34:47;7.63;;;2.78;;
44462;SDS011;30170;52.190;8.702;2023-03-23T22:37:25;4.13;;;2.28;;
44462;SDS011;30170;52.190;8.702;2023-03-23T22:39:52;4.60;;;2.67;;
44462;SDS011;30170;52.190;8.702;2023-03-23T22:42:23;3.72;;;2.05;;
44462;SDS011;30170;52.190;8.702;2023-03-23T22:44:53;5.43;;;2.35;;
44462;SDS011;30170;52.190;8.702;2023-03-23T22:47:28;6.95;;;3.15;;
44462;SDS011;30170;52.190;8.702;2023-03-23T22:50:25;4.72;;;2.40;;
44462;SDS011;30170;52.190;8.702;2023-03-23T22:52:59;5.68;;;2.30;;
44462;SDS011;30170;52.190;8.702;2023-03-23T22:55:37;4.60;;;2.22;;
44462;SDS011;30170;52.190;8.702;2023-03-23T22:58:29;5.57;;;2.33;;
44462;SDS011;30170;52.190;8.702;2023-03-23T23:06:21;4.38;;;2.35;;
44462;SDS011;30170;52.190;8.702;2023-03-23T23:08:54;5.57;;;2.40;;
44462;SDS011;30170;52.190;8.702;2023-03-23T23:11:25;5.70;;;2.20;;
44462;SDS011;30170;52.190;8.702;2023-03-23T23:14:04;5.60;;;2.20;;
44462;SDS011;30170;52.190;8.702;2023-03-23T23:16:33;7.63;;;2.58;;
44462;SDS011;30170;52.190;8.702;2023-03-23T23:19:00;4.72;;;1.98;;
44462;SDS011;30170;52.190;8.702;2023-03-23T23:21:30;5.68;;;2.70;;
44462;SDS011;30170;52.190;8.702;2023-03-23T23:24:12;3.75;;;2.15;;
44462;SDS011;30170;52.190;8.702;2023-03-23T23:26:54;5.75;;;2.40;;
44462;SDS011;30170;52.190;8.702;2023-03-23T23:29:21;3.05;;;1.83;;
44462;SDS011;30170;52.190;8.702;2023-03-23T23:31:49;4.65;;;2.10;;
44462;SDS011;30170;52.190;8.702;2023-03-23T23:34:16;4.38;;;2.20;;
44462;SDS011;30170;52.190;8.702;2023-03-23T23:36:43;4.70;;;2.15;;
44462;SDS011;30170;52.190;8.702;2023-03-23T23:39:11;6.60;;;3.03;;
44462;SDS011;30170;52.190;8.702;2023-03-23T23:41:38;5.22;;;2.13;;
44462;SDS011;30170;52.190;8.702;2023-03-23T23:44:06;7.13;;;2.67;;
44462;SDS011;30170;52.190;8.702;2023-03-23T23:46:33;7.78;;;3.05;;
44462;SDS011;30170;52.190;8.702;2023-03-23T23:49:01;5.20;;;2.22;;
44462;SDS011;30170;52.190;8.702;2023-03-23T23:51:29;4.15;;;2.42;;
44462;SDS011;30170;52.190;8.702;2023-03-23T23:53:59;6.82;;;3.47;;
44462;SDS011;30170;52.190;8.702;2023-03-23T23:56:27;5.10;;;2.85;;
44462;SDS011;30170;52.190;8.702;2023-03-23T23:58:55;6.88;;;2.90;;
